createdAt,value
2018-09-25T00:00:10.519Z,98837.45
2018-09-25T00:02:37.287Z,98836.31
2018-09-25T00:05:04.004Z,98829.56
2018-09-25T00:07:30.676Z,98832.33
2018-09-25T00:09:58.026Z,98835.55
2018-09-25T00:12:24.816Z,98837.48
2018-09-25T00:14:52.648Z,98832.69
2018-09-25T00:17:19.318Z,98834.80
2018-09-25T00:19:45.996Z,98841.82
2018-09-25T00:22:12.664Z,98843.28
2018-09-25T00:24:40.308Z,98839.32
2018-09-25T00:27:06.972Z,98843.09
2018-09-25T00:29:33.680Z,98844.00
2018-09-25T00:34:32.639Z,98840.69
2018-09-25T00:36:59.957Z,98847.19
2018-09-25T00:39:27.126Z,98845.95
2018-09-25T00:41:54.836Z,98850.27
2018-09-25T00:44:21.810Z,98846.20
2018-09-25T00:46:48.704Z,98846.86
2018-09-25T00:49:15.666Z,98848.27
2018-09-25T00:51:42.558Z,98853.06
2018-09-25T00:54:10.267Z,98846.85
2018-09-25T00:56:36.860Z,98846.53
2018-09-25T00:59:03.380Z,98844.09
2018-09-25T01:01:30.002Z,98854.05
2018-09-25T01:03:56.610Z,98853.17
2018-09-25T01:06:23.629Z,98845.53
2018-09-25T01:08:50.319Z,98846.52
2018-09-25T01:11:17.158Z,98843.09
2018-09-25T01:13:44.349Z,98847.61
2018-09-25T01:16:11.343Z,98843.70
2018-09-25T01:18:37.951Z,98848.53
2018-09-25T01:21:04.405Z,98833.48
2018-09-25T01:23:31.120Z,98845.26
2018-09-25T01:25:57.724Z,98844.34
2018-09-25T01:28:24.361Z,98841.03
2018-09-25T01:30:50.929Z,98844.61
2018-09-25T01:33:17.911Z,98848.48
2018-09-25T01:35:44.473Z,98838.64
2018-09-25T01:40:43.090Z,98834.81
2018-09-25T01:43:09.687Z,98831.91
2018-09-25T01:45:36.604Z,98830.81
2018-09-25T01:48:04.129Z,98833.45
2018-09-25T01:50:31.814Z,98826.99
2018-09-25T01:52:58.273Z,98835.30
2018-09-25T01:55:25.406Z,98833.01
2018-09-25T01:57:51.886Z,98838.12
2018-09-25T02:00:18.709Z,98839.77
2018-09-25T02:05:16.758Z,98822.64
2018-09-25T02:07:43.396Z,98824.36
2018-09-25T02:10:10.152Z,98820.02
2018-09-25T02:12:36.664Z,98824.16
2018-09-25T02:15:03.180Z,98826.45
2018-09-25T02:17:29.666Z,98824.83
2018-09-25T02:19:56.152Z,98832.34
2018-09-25T02:22:22.823Z,98839.37
2018-09-25T02:24:49.754Z,98839.19
2018-09-25T02:27:16.293Z,98848.09
2018-09-25T02:29:42.844Z,98849.56
2018-09-25T02:32:09.467Z,98849.75
2018-09-25T02:37:07.540Z,98863.85
2018-09-25T02:39:34.056Z,98866.48
2018-09-25T02:42:00.678Z,98867.84
2018-09-25T02:44:27.237Z,98864.70
2018-09-25T02:46:53.815Z,98868.86
2018-09-25T02:49:20.380Z,98884.25
2018-09-25T02:51:46.892Z,98876.38
2018-09-25T02:54:13.409Z,98884.20
2018-09-25T02:56:39.966Z,98883.52
2018-09-25T02:59:06.517Z,98885.72
2018-09-25T03:01:33.029Z,98880.90
2018-09-25T03:03:59.518Z,98880.95
2018-09-25T03:06:26.050Z,98892.80
2018-09-25T03:08:52.544Z,98891.81
2018-09-25T03:11:19.100Z,98895.05
2018-09-25T03:13:46.696Z,98890.12
2018-09-25T03:16:13.637Z,98898.89
2018-09-25T03:18:40.098Z,98908.74
2018-09-25T03:21:09.931Z,98903.66
2018-09-25T03:23:36.484Z,98907.61
2018-09-25T03:26:03.129Z,98912.20
2018-09-25T03:28:30.031Z,98911.52
2018-09-25T03:30:56.575Z,98917.47
2018-09-25T03:33:23.112Z,98910.37
2018-09-25T03:40:53.344Z,98901.05
2018-09-25T03:43:19.825Z,98903.55
2018-09-25T03:45:47.142Z,98908.55
2018-09-25T03:48:14.790Z,98912.95
2018-09-25T03:50:41.368Z,98909.48
2018-09-25T03:53:07.930Z,98907.92
2018-09-25T03:55:34.514Z,98909.36
2018-09-25T03:58:01.071Z,98915.72
2018-09-25T04:00:27.587Z,98916.00
2018-09-25T04:02:54.118Z,98921.47
2018-09-25T04:05:20.592Z,98921.10
2018-09-25T04:07:47.064Z,98921.68
2018-09-25T04:10:13.592Z,98918.70
2018-09-25T04:12:40.124Z,98921.55
2018-09-25T04:15:06.685Z,98929.77
2018-09-25T04:17:33.151Z,98926.84
2018-09-25T04:19:59.614Z,98918.83
2018-09-25T04:22:26.086Z,98940.56
2018-09-25T04:24:52.613Z,98927.84
2018-09-25T04:27:19.133Z,98936.30
2018-09-25T04:29:45.745Z,98940.16
2018-09-25T04:32:12.240Z,98936.47
2018-09-25T04:34:38.762Z,98936.27
2018-09-25T04:37:06.062Z,98939.40
2018-09-25T04:39:32.610Z,98944.03
2018-09-25T04:41:59.102Z,98948.82
2018-09-25T04:44:25.666Z,98953.39
2018-09-25T04:46:52.267Z,98958.36
2018-09-25T04:49:18.862Z,98957.23
2018-09-25T04:51:46.352Z,98961.88
2018-09-25T04:54:12.889Z,98961.65
2018-09-25T04:56:39.466Z,98957.36
2018-09-25T04:59:06.024Z,98957.45
2018-09-25T05:04:04.966Z,98976.88
2018-09-25T05:06:31.656Z,98966.61
2018-09-25T05:08:58.279Z,98975.40
2018-09-25T05:11:24.827Z,98978.25
2018-09-25T05:13:51.405Z,98990.73
2018-09-25T05:16:17.941Z,98993.42
2018-09-25T05:18:44.523Z,98992.58
2018-09-25T05:21:11.057Z,98997.69
2018-09-25T05:23:37.640Z,98996.14
2018-09-25T05:26:04.198Z,99014.73
2018-09-25T05:28:30.748Z,99010.17
2018-09-25T05:30:57.256Z,99004.58
2018-09-25T05:35:55.572Z,99016.98
2018-09-25T05:38:22.089Z,99016.76
2018-09-25T05:40:48.624Z,99016.26
2018-09-25T05:43:15.560Z,99015.52
2018-09-25T05:45:42.076Z,99020.20
2018-09-25T05:48:08.567Z,99028.92
2018-09-25T05:50:35.254Z,99031.88
2018-09-25T05:53:01.818Z,99038.16
2018-09-25T05:55:28.296Z,99026.70
2018-09-25T05:57:54.944Z,99036.34
2018-09-25T06:00:21.521Z,99043.80
2018-09-25T06:02:48.405Z,99032.29
2018-09-25T06:05:14.928Z,99027.53
2018-09-25T06:07:41.446Z,99044.88
2018-09-25T06:10:07.932Z,99046.11
2018-09-25T06:12:34.513Z,99047.45
2018-09-25T06:15:01.487Z,99058.69
2018-09-25T06:17:27.933Z,99051.02
2018-09-25T06:19:54.507Z,99057.28
2018-09-25T06:22:21.015Z,99064.03
2018-09-25T06:24:47.523Z,99070.02
2018-09-25T06:27:14.149Z,99076.58
2018-09-25T06:29:40.710Z,99073.70
2018-09-25T06:32:07.226Z,99076.48
2018-09-25T06:34:33.777Z,99078.37
2018-09-25T06:37:00.404Z,99091.94
2018-09-25T06:39:26.951Z,99092.30
2018-09-25T06:41:53.440Z,99080.47
2018-09-25T06:44:19.925Z,99085.42
2018-09-25T06:46:46.444Z,99086.63
2018-09-25T06:49:12.996Z,99085.95
2018-09-25T06:51:39.645Z,99094.39
2018-09-25T06:54:06.196Z,99098.67
2018-09-25T06:56:32.701Z,99101.84
2018-09-25T06:58:59.161Z,99092.11
2018-09-25T07:01:25.696Z,99090.81
2018-09-25T07:03:52.469Z,99095.39
2018-09-25T07:06:19.580Z,99106.61
2018-09-25T07:08:46.064Z,99107.66
2018-09-25T07:11:12.572Z,99107.00
2018-09-25T07:13:39.082Z,99111.45
2018-09-25T07:16:05.728Z,99110.94
2018-09-25T07:18:32.203Z,99108.66
2018-09-25T07:20:58.702Z,99118.56
2018-09-25T07:23:25.188Z,99110.97
2018-09-25T07:25:51.949Z,99110.82
2018-09-25T07:28:18.448Z,99108.84
2018-09-25T07:30:44.972Z,99115.18
2018-09-25T07:33:11.665Z,99115.66
2018-09-25T07:35:38.192Z,99120.67
2018-09-25T07:38:04.775Z,99123.34
2018-09-25T07:40:31.319Z,99122.34
2018-09-25T07:42:57.868Z,99127.39
2018-09-25T07:45:24.350Z,99140.64
2018-09-25T07:47:51.273Z,99142.02
2018-09-25T07:50:17.748Z,99135.14
2018-09-25T07:52:44.225Z,99140.50
2018-09-25T07:55:12.656Z,99143.07
2018-09-25T07:57:39.096Z,99137.81
2018-09-25T08:00:05.672Z,99144.72
2018-09-25T08:02:32.203Z,99150.39
2018-09-25T08:04:58.747Z,99158.54
2018-09-25T08:07:25.202Z,99165.14
2018-09-25T08:09:51.693Z,99166.05
2018-09-25T08:12:18.230Z,99163.67
2018-09-25T08:14:44.665Z,99162.73
2018-09-25T08:17:11.144Z,99162.62
2018-09-25T08:19:37.736Z,99169.13
2018-09-25T08:22:04.211Z,99170.61
2018-09-25T08:24:30.711Z,99167.38
2018-09-25T08:26:57.148Z,99169.68
2018-09-25T08:29:23.606Z,99170.69
2018-09-25T08:31:50.125Z,99171.44
2018-09-25T08:34:16.560Z,99170.69
2018-09-25T08:36:43.043Z,99176.74
2018-09-25T08:39:09.562Z,99178.55
2018-09-25T08:41:36.165Z,99169.62
2018-09-25T08:44:02.740Z,99177.61
2018-09-25T08:46:29.290Z,99186.72
2018-09-25T08:48:55.760Z,99183.03
2018-09-25T08:51:22.362Z,99187.50
2018-09-25T08:53:48.850Z,99191.30
2018-09-25T08:56:15.325Z,99189.79
2018-09-25T08:58:41.820Z,99187.13
2018-09-25T09:01:08.320Z,99181.09
2018-09-25T09:03:35.097Z,99180.55
2018-09-25T09:06:01.539Z,99190.63
2018-09-25T09:08:28.134Z,99187.69
2018-09-25T09:10:54.726Z,99187.02
2018-09-25T09:13:21.768Z,99187.66
2018-09-25T09:15:48.256Z,99185.55
2018-09-25T09:18:14.892Z,99188.02
2018-09-25T09:20:41.354Z,99194.56
2018-09-25T09:23:07.825Z,99195.59
2018-09-25T09:25:34.303Z,99192.86
2018-09-25T09:28:00.832Z,99197.40
2018-09-25T09:30:27.423Z,99210.84
2018-09-25T09:32:54.393Z,99216.09
2018-09-25T09:35:20.882Z,99210.07
2018-09-25T09:37:47.439Z,99201.56
2018-09-25T09:40:13.983Z,99218.32
2018-09-25T09:42:40.505Z,99220.09
2018-09-25T09:45:07.034Z,99216.42
2018-09-25T09:47:33.481Z,99218.06
2018-09-25T09:49:59.931Z,99213.48
2018-09-25T09:52:26.451Z,99222.11
2018-09-25T09:54:54.429Z,99217.30
2018-09-25T09:57:20.945Z,99225.30
2018-09-25T09:59:47.610Z,99221.45
2018-09-25T10:02:14.089Z,99217.31
2018-09-25T10:04:40.621Z,99223.68
2018-09-25T10:07:07.159Z,99214.45
2018-09-25T10:09:33.857Z,99213.12
2018-09-25T10:12:00.353Z,99213.16
2018-09-25T10:14:26.810Z,99206.98
2018-09-25T10:16:54.472Z,99218.19
2018-09-25T10:19:20.940Z,99212.08
2018-09-25T10:21:47.425Z,99216.23
2018-09-25T10:24:14.091Z,99219.42
2018-09-25T10:26:40.589Z,99213.27
2018-09-25T10:29:07.098Z,99215.63
2018-09-25T10:31:33.635Z,99215.74
2018-09-25T10:34:00.193Z,99226.20
2018-09-25T10:38:58.621Z,99222.15
2018-09-25T10:41:25.288Z,99223.21
2018-09-25T10:43:52.018Z,99221.34
2018-09-25T10:46:18.649Z,99227.47
2018-09-25T10:48:45.128Z,99231.72
2018-09-25T10:51:11.624Z,99229.34
2018-09-25T10:53:38.124Z,99226.57
2018-09-25T10:56:04.722Z,99226.69
2018-09-25T10:58:31.264Z,99219.91
2018-09-25T11:00:57.770Z,99220.65
2018-09-25T11:03:24.371Z,99230.04
2018-09-25T11:05:50.912Z,99223.41
2018-09-25T11:08:17.460Z,99216.75
2018-09-25T11:10:44.104Z,99212.73
2018-09-25T11:13:10.566Z,99213.88
2018-09-25T11:15:37.156Z,99224.89
2018-09-25T11:18:03.692Z,99229.30
2018-09-25T11:20:30.203Z,99225.39
2018-09-25T11:22:56.777Z,99227.78
2018-09-25T11:25:23.267Z,99228.92
2018-09-25T11:27:49.939Z,99222.30
2018-09-25T11:30:16.458Z,99219.53
2018-09-25T11:32:42.978Z,99224.78
2018-09-25T11:35:09.588Z,99214.72
2018-09-25T11:37:36.284Z,99221.27
2018-09-25T11:40:02.754Z,99209.44
2018-09-25T11:42:29.284Z,99208.30
2018-09-25T11:44:56.724Z,99211.44
2018-09-25T11:47:23.228Z,99199.06
2018-09-25T11:49:49.755Z,99203.59
2018-09-25T11:52:16.381Z,99200.10
2018-09-25T11:54:42.884Z,99208.48
2018-09-25T11:57:09.443Z,99202.70
2018-09-25T11:59:35.994Z,99202.19
2018-09-25T12:02:02.543Z,99207.93
2018-09-25T12:04:29.244Z,99200.02
2018-09-25T12:06:56.034Z,99191.77
2018-09-25T12:09:22.610Z,99198.32
2018-09-25T12:11:49.109Z,99182.01
2018-09-25T12:14:15.789Z,99174.09
2018-09-25T12:16:42.398Z,99169.41
2018-09-25T12:19:08.913Z,99176.89
2018-09-25T12:21:35.496Z,99177.31
2018-09-25T12:24:02.025Z,99176.41
2018-09-25T12:26:28.532Z,99183.58
2018-09-25T12:28:55.104Z,99181.19
2018-09-25T12:31:21.603Z,99185.10
2018-09-25T12:33:48.208Z,99182.08
2018-09-25T12:36:14.813Z,99187.38
2018-09-25T12:38:41.730Z,99187.56
2018-09-25T12:41:08.419Z,99187.55
2018-09-25T12:43:35.017Z,99185.41
2018-09-25T12:46:01.811Z,99187.19
2018-09-25T12:48:28.645Z,99180.77
2018-09-25T12:50:55.284Z,99182.52
2018-09-25T12:53:21.872Z,99180.28
2018-09-25T12:55:48.409Z,99164.31
2018-09-25T12:58:14.941Z,99194.03
2018-09-25T13:00:41.499Z,99185.92
2018-09-25T13:03:08.063Z,99192.38
2018-09-25T13:05:34.516Z,99192.46
2018-09-25T13:08:00.981Z,99194.83
2018-09-25T13:10:27.521Z,99189.11
2018-09-25T13:12:54.467Z,99191.34
2018-09-25T13:15:21.450Z,99192.48
2018-09-25T13:17:47.931Z,99185.83
2018-09-25T13:20:14.411Z,99180.27
2018-09-25T13:22:40.952Z,99175.34
2018-09-25T13:25:07.524Z,99177.17
2018-09-25T13:27:34.211Z,99177.78
2018-09-25T13:30:00.697Z,99187.56
2018-09-25T13:32:27.177Z,99177.36
2018-09-25T13:34:54.115Z,99181.78
2018-09-25T13:37:20.724Z,99182.33
2018-09-25T13:39:47.886Z,99196.48
2018-09-25T13:42:14.476Z,99196.66
2018-09-25T13:44:41.244Z,99186.27
2018-09-25T13:47:07.759Z,99188.09
2018-09-25T13:49:34.312Z,99185.86
2018-09-25T13:52:00.752Z,99188.30
2018-09-25T13:54:27.307Z,99187.75
2018-09-25T13:56:53.815Z,99184.16
2018-09-25T13:59:20.313Z,99183.50
2018-09-25T14:01:46.826Z,99178.73
2018-09-25T14:04:13.364Z,99186.01
2018-09-25T14:06:39.868Z,99187.19
2018-09-25T14:09:06.360Z,99184.54
2018-09-25T14:11:32.874Z,99191.06
2018-09-25T14:13:59.368Z,99185.84
2018-09-25T14:16:25.847Z,99187.91
2018-09-25T14:18:52.357Z,99192.45
2018-09-25T14:21:18.846Z,99190.89
2018-09-25T14:23:45.379Z,99188.49
2018-09-25T14:26:12.923Z,99194.26
2018-09-25T14:28:39.392Z,99197.23
2018-09-25T14:31:05.899Z,99192.73
2018-09-25T14:33:32.425Z,99194.79
2018-09-25T14:35:58.892Z,99192.59
2018-09-25T14:38:25.413Z,99193.97
2018-09-25T14:40:51.919Z,99188.94
2018-09-25T14:43:18.805Z,99196.79
2018-09-25T14:45:45.614Z,99185.91
2018-09-25T14:48:12.148Z,99194.54
2018-09-25T14:50:38.663Z,99190.70
2018-09-25T14:53:05.235Z,99190.63
2018-09-25T14:55:31.748Z,99190.55
2018-09-25T14:57:58.244Z,99193.51
2018-09-25T15:00:24.753Z,99195.89
2018-09-25T15:02:51.342Z,99194.04
2018-09-25T15:05:18.876Z,99197.14
2018-09-25T15:07:45.373Z,99193.00
2018-09-25T15:10:12.862Z,99197.61
2018-09-25T15:12:39.425Z,99198.78
2018-09-25T15:15:05.907Z,99200.37
2018-09-25T15:17:32.542Z,99207.30
2018-09-25T15:19:59.130Z,99204.85
2018-09-25T15:22:28.000Z,99210.23
2018-09-25T15:24:54.604Z,99214.31
2018-09-25T15:27:21.111Z,99216.28
2018-09-25T15:29:48.662Z,99215.65
2018-09-25T15:32:15.242Z,99220.09
2018-09-25T15:34:41.714Z,99220.12
2018-09-25T15:37:08.184Z,99224.49
2018-09-25T15:39:34.669Z,99226.55
2018-09-25T15:42:01.186Z,99229.13
2018-09-25T15:44:27.935Z,99229.48
2018-09-25T15:46:54.633Z,99227.52
2018-09-25T15:49:21.201Z,99231.84
2018-09-25T15:51:48.336Z,99228.92
2018-09-25T15:54:16.252Z,99233.09
2018-09-25T15:56:42.719Z,99233.17
2018-09-25T15:59:09.173Z,99235.75
2018-09-25T16:01:35.652Z,99234.58
2018-09-25T16:04:02.096Z,99240.60
2018-09-25T16:06:28.612Z,99241.75
2018-09-25T16:08:55.091Z,99245.20
2018-09-25T16:11:21.742Z,99249.38
2018-09-25T16:13:48.211Z,99251.72
2018-09-25T16:16:14.710Z,99255.66
2018-09-25T16:18:41.288Z,99260.61
2018-09-25T16:21:07.774Z,99261.55
2018-09-25T16:23:34.279Z,99264.86
2018-09-25T16:26:00.754Z,99260.36
2018-09-25T16:28:27.434Z,99263.17
2018-09-25T16:30:54.346Z,99267.30
2018-09-25T16:33:20.853Z,99274.50
2018-09-25T16:35:47.336Z,99280.79
2018-09-25T16:40:46.978Z,99284.69
2018-09-25T16:43:13.463Z,99299.78
2018-09-25T16:45:40.064Z,99302.73
2018-09-25T16:48:06.694Z,99308.08
2018-09-25T16:50:33.180Z,99312.58
2018-09-25T16:52:59.692Z,99318.88
2018-09-25T16:55:26.578Z,99319.39
2018-09-25T16:57:53.074Z,99320.55
2018-09-25T17:00:19.779Z,99323.85
2018-09-25T17:02:46.477Z,99314.04
2018-09-25T17:05:13.138Z,99328.75
2018-09-25T17:07:39.617Z,99323.96
2018-09-25T17:10:06.119Z,99331.98
2018-09-25T17:12:32.587Z,99337.31
2018-09-25T17:14:59.499Z,99340.73
2018-09-25T17:17:26.022Z,99338.14
2018-09-25T17:19:52.508Z,99342.59
2018-09-25T17:22:18.986Z,99343.55
2018-09-25T17:24:46.198Z,99358.44
2018-09-25T17:27:12.734Z,99361.05
2018-09-25T17:29:39.695Z,99365.77
2018-09-25T17:37:31.144Z,99380.56
2018-09-25T17:39:57.824Z,99383.02
2018-09-25T17:42:24.360Z,99384.02
2018-09-25T17:44:50.893Z,99389.41
2018-09-25T17:47:17.420Z,99390.41
2018-09-25T17:49:43.876Z,99391.95
2018-09-25T17:52:10.447Z,99405.77
2018-09-25T17:54:37.173Z,99404.13
2018-09-25T17:57:03.749Z,99403.55
2018-09-25T17:59:30.541Z,99400.06
2018-09-25T18:01:57.698Z,99402.92
2018-09-25T18:04:24.627Z,99410.15
2018-09-25T18:06:51.154Z,99407.34
2018-09-25T18:09:17.701Z,99408.50
2018-09-25T18:11:44.674Z,99423.05
2018-09-25T18:14:11.153Z,99425.11
2018-09-25T18:16:37.674Z,99430.95
2018-09-25T18:19:04.172Z,99439.98
2018-09-25T18:21:30.694Z,99436.98
2018-09-25T18:23:57.429Z,99444.06
2018-09-25T18:26:23.906Z,99452.23
2018-09-25T18:28:50.468Z,99455.88
2018-09-25T18:31:16.948Z,99458.80
2018-09-25T18:33:43.419Z,99463.04
2018-09-25T18:36:09.896Z,99471.24
2018-09-25T18:43:40.168Z,99481.45
2018-09-25T18:46:06.874Z,99484.30
2018-09-25T18:48:33.347Z,99485.36
2018-09-25T18:53:31.884Z,99492.45
2018-09-25T18:55:58.386Z,99490.77
2018-09-25T18:58:25.299Z,99494.65
2018-09-25T19:00:51.780Z,99506.92
2018-09-25T19:03:18.425Z,99496.32
2018-09-25T19:05:45.898Z,99504.89
2018-09-25T19:08:12.441Z,99511.84
2018-09-25T19:10:39.006Z,99514.05
2018-09-25T19:13:05.860Z,99511.51
2018-09-25T19:15:34.670Z,99515.70
2018-09-25T19:18:01.166Z,99520.57
2018-09-25T19:20:28.323Z,99527.36
2018-09-25T19:22:54.845Z,99532.44
2018-09-25T19:25:21.383Z,99534.91
2018-09-25T19:27:47.985Z,99541.84
2018-09-25T19:30:15.673Z,99542.23
2018-09-25T19:32:42.886Z,99544.37
2018-09-25T19:35:10.040Z,99547.77
2018-09-25T19:37:37.002Z,99550.89
2018-09-25T19:40:04.854Z,99557.16
2018-09-25T19:42:31.393Z,99568.33
2018-09-25T19:44:57.943Z,99570.03
2018-09-25T19:47:24.506Z,99568.73
2018-09-25T19:49:50.992Z,99564.88
2018-09-25T19:52:17.509Z,99569.32
2018-09-25T19:54:44.146Z,99574.14
2018-09-25T19:57:11.764Z,99579.77
2018-09-25T19:59:40.388Z,99574.19
2018-09-25T20:02:07.078Z,99575.18
2018-09-25T20:04:33.774Z,99575.69
2018-09-25T20:07:03.969Z,99573.72
2018-09-25T20:09:33.327Z,99577.76
2018-09-25T20:12:00.132Z,99581.80
2018-09-25T20:14:27.280Z,99581.19
2018-09-25T20:16:54.115Z,99579.09
2018-09-25T20:19:21.537Z,99581.61
2018-09-25T20:21:48.309Z,99585.32
2018-09-25T20:24:14.835Z,99588.59
2018-09-25T20:26:41.308Z,99581.47
2018-09-25T20:29:08.858Z,99588.52
2018-09-25T20:31:35.652Z,99589.06
2018-09-25T20:34:04.574Z,99581.47
2018-09-25T20:36:33.108Z,99588.18
2018-09-25T20:39:00.340Z,99586.53
2018-09-25T20:41:27.996Z,99589.49
2018-09-25T20:46:26.466Z,99596.70
2018-09-25T20:48:52.981Z,99592.20
2018-09-25T20:51:19.426Z,99606.73
2018-09-25T20:53:45.968Z,99604.81
2018-09-25T20:56:12.490Z,99613.84
2018-09-25T20:58:39.201Z,99619.08
2018-09-25T21:03:39.099Z,99622.08
2018-09-25T21:06:05.612Z,99621.72
2018-09-25T21:08:32.054Z,99620.10
2018-09-25T21:10:58.551Z,99633.09
2018-09-25T21:13:25.048Z,99625.41
2018-09-25T21:15:51.711Z,99631.72
2018-09-25T21:18:18.368Z,99634.08
2018-09-25T21:20:44.903Z,99640.40
2018-09-25T21:23:11.395Z,99637.16
2018-09-25T21:25:37.896Z,99634.67
2018-09-25T21:28:04.394Z,99642.30
2018-09-25T21:30:31.966Z,99645.73
2018-09-25T21:32:58.474Z,99648.86
2018-09-25T21:35:24.983Z,99654.59
2018-09-25T21:37:51.498Z,99652.06
2018-09-25T21:40:18.014Z,99657.56
2018-09-25T21:42:44.478Z,99660.33
2018-09-25T21:45:11.098Z,99661.39
2018-09-25T21:52:45.061Z,99657.52
2018-09-25T21:55:11.896Z,99654.89
2018-09-25T21:57:38.484Z,99661.57
2018-09-25T22:02:36.852Z,99663.00
2018-09-25T22:05:03.384Z,99663.62
2018-09-25T22:07:29.835Z,99663.00
2018-09-25T22:09:56.344Z,99668.83
2018-09-25T22:12:22.827Z,99668.27
2018-09-25T22:14:49.442Z,99665.97
2018-09-25T22:17:15.933Z,99673.73
2018-09-25T22:19:42.492Z,99677.47
2018-09-25T22:22:09.038Z,99676.25
2018-09-25T22:24:37.027Z,99676.56
2018-09-25T22:27:03.870Z,99680.84
2018-09-25T22:29:30.496Z,99681.14
2018-09-25T22:31:57.057Z,99673.31
2018-09-25T22:34:23.544Z,99676.20
2018-09-25T22:36:50.193Z,99673.92
2018-09-25T22:41:49.239Z,99679.20
2018-09-25T22:44:15.811Z,99677.47
2018-09-25T22:46:43.200Z,99682.30
2018-09-25T22:49:09.855Z,99678.52
2018-09-25T22:51:36.394Z,99681.67
2018-09-25T22:54:02.946Z,99680.72
2018-09-25T22:56:29.744Z,99684.00
2018-09-25T22:58:56.208Z,99687.02
2018-09-25T23:01:22.706Z,99686.11
2018-09-25T23:03:49.233Z,99685.43
2018-09-25T23:06:15.678Z,99686.29
2018-09-25T23:08:42.527Z,99691.37
2018-09-25T23:11:09.076Z,99685.45
2018-09-25T23:13:35.564Z,99683.91
2018-09-25T23:16:02.070Z,99686.77
2018-09-25T23:18:28.679Z,99688.33
2018-09-25T23:20:55.215Z,99686.59
2018-09-25T23:23:21.661Z,99687.25
2018-09-25T23:25:48.201Z,99686.91
2018-09-25T23:28:14.727Z,99686.73
2018-09-25T23:30:41.329Z,99683.14
2018-09-25T23:35:40.131Z,99675.13
2018-09-25T23:38:06.713Z,99668.67
2018-09-25T23:40:33.193Z,99668.00
2018-09-25T23:42:59.768Z,99676.58
2018-09-25T23:45:26.912Z,99678.66
2018-09-25T23:47:53.478Z,99701.11
2018-09-25T23:50:19.955Z,99698.49
2018-09-25T23:52:46.482Z,99686.23
2018-09-25T23:55:13.017Z,99690.47
2018-09-25T23:57:39.529Z,99687.50
